KNQX/NQX METAR and TAF weather

Enter ICAO airport designator
Station Type Date Time Source
KNQX METAR 2022/06/30 01:53 UTC NOAA

KNQX 300153Z 12006KT 10SM FEW032 BKN250 31/23 A3013 RMK SLP201 LAST T03110233 $


Station Type Date Time Source
KNQX Decoded METAR 2022/06/30 01:53 UTC NOAA

KEY WEST NAVAL AIR STATION, FL, United States (KNQX) 24-35N 81-41W 6M
Jun 29, 2022 - 09:53 PM EDT / 2022.06.30 0153 UTC
Wind: from the ESE (120 degrees) at 7 MPH (6 KT):0
Visibility: 10 mile(s):0
Sky conditions: mostly cloudy
Temperature: 88.0 F (31.1 C)
Heat index: 96.6 F (35.9 C):1
Dew Point: 73.9 F (23.3 C)
Relative Humidity: 63%
Pressure (altimeter): 30.13 in. Hg (1020 hPa)
ob: KNQX 300153Z 12006KT 10SM FEW032 BKN250 31/23 A3013 RMK SLP201 LAST T03110233
cycle: 2

Station Type Date Time Source
KNQX TAF 2022/06/29 23:59 UTC NOAA

TAF KNQX 2923/3023 VRB05KT 9999 FEW025 SCT250 QNH3005INS
FM301400 12011KT 9999 SCT025 SCT250 QNH3000INS AUTOMATED SENSOR METWATCH 3002 TIL 3010 T28/3011Z T33/3019Z FN20056

Example: see airport list